sensor_id;sensor_type;location;lat;lon;timestamp;temperature;humidity
48836;DHT22;62581;47.342;7.908;2023-02-11T00:00:39;-0.60;99.90
48836;DHT22;62581;47.342;7.908;2023-02-11T00:03:06;-0.50;99.90
48836;DHT22;62581;47.342;7.908;2023-02-11T00:05:33;-0.50;99.90
48836;DHT22;62581;47.342;7.908;2023-02-11T00:08:00;-0.60;99.90
48836;DHT22;62581;47.342;7.908;2023-02-11T00:10:27;-0.60;99.90
48836;DHT22;62581;47.342;7.908;2023-02-11T00:12:56;-0.60;99.90
48836;DHT22;62581;47.342;7.908;2023-02-11T00:15:23;-0.70;99.90
48836;DHT22;62581;47.342;7.908;2023-02-11T00:17:50;-0.70;99.90
48836;DHT22;62581;47.342;7.908;2023-02-11T00:20:17;-0.70;99.90
48836;DHT22;62581;47.342;7.908;2023-02-11T00:22:44;-0.70;99.90
48836;DHT22;62581;47.342;7.908;2023-02-11T00:25:11;-0.70;99.90
48836;DHT22;62581;47.342;7.908;2023-02-11T00:27:38;-0.70;99.90
48836;DHT22;62581;47.342;7.908;2023-02-11T00:30:07;-0.70;99.90
48836;DHT22;62581;47.342;7.908;2023-02-11T00:32:34;-0.70;99.90
48836;DHT22;62581;47.342;7.908;2023-02-11T00:35:01;-0.80;99.90
48836;DHT22;62581;47.342;7.908;2023-02-11T00:37:28;-0.70;99.90
48836;DHT22;62581;47.342;7.908;2023-02-11T00:39:55;-0.80;99.90
48836;DHT22;62581;47.342;7.908;2023-02-11T00:42:22;-0.80;99.90
48836;DHT22;62581;47.342;7.908;2023-02-11T00:44:49;-0.80;99.90
48836;DHT22;62581;47.342;7.908;2023-02-11T00:47:17;-0.80;99.90
48836;DHT22;62581;47.342;7.908;2023-02-11T00:49:44;-0.80;99.90
48836;DHT22;62581;47.342;7.908;2023-02-11T00:52:11;-0.80;99.90
48836;DHT22;62581;47.342;7.908;2023-02-11T00:54:39;-0.80;99.90
48836;DHT22;62581;47.342;7.908;2023-02-11T00:57:06;-0.80;99.90
48836;DHT22;62581;47.342;7.908;2023-02-11T00:59:33;-0.80;99.90
48836;DHT22;62581;47.342;7.908;2023-02-11T01:02:00;-0.80;99.90
48836;DHT22;62581;47.342;7.908;2023-02-11T01:04:29;-0.70;99.90
48836;DHT22;62581;47.342;7.908;2023-02-11T01:06:56;-0.70;99.90
48836;DHT22;62581;47.342;7.908;2023-02-11T01:09:23;-0.70;99.90
48836;DHT22;62581;47.342;7.908;2023-02-11T01:11:49;-0.70;99.90
48836;DHT22;62581;47.342;7.908;2023-02-11T01:14:17;-0.70;99.90
48836;DHT22;62581;47.342;7.908;2023-02-11T01:16:44;-0.80;99.90
48836;DHT22;62581;47.342;7.908;2023-02-11T01:19:10;-0.80;99.90
48836;DHT22;62581;47.342;7.908;2023-02-11T01:21:39;-0.80;99.90
48836;DHT22;62581;47.342;7.908;2023-02-11T01:24:06;-0.80;99.90
48836;DHT22;62581;47.342;7.908;2023-02-11T01:26:33;-0.80;99.90
48836;DHT22;62581;47.342;7.908;2023-02-11T01:29:00;-0.80;99.90
48836;DHT22;62581;47.342;7.908;2023-02-11T01:31:28;-0.90;99.90
48836;DHT22;62581;47.342;7.908;2023-02-11T01:33:55;-1.00;99.90
48836;DHT22;62581;47.342;7.908;2023-02-11T01:36:22;-1.10;99.90
48836;DHT22;62581;47.342;7.908;2023-02-11T01:38:51;-1.20;99.90
48836;DHT22;62581;47.342;7.908;2023-02-11T01:41:18;-1.20;99.90
48836;DHT22;62581;47.342;7.908;2023-02-11T01:43:47;-1.30;99.90
48836;DHT22;62581;47.342;7.908;2023-02-11T01:46:22;-1.30;99.90
48836;DHT22;62581;47.342;7.908;2023-02-11T01:48:55;-1.40;99.90
48836;DHT22;62581;47.342;7.908;2023-02-11T01:51:25;-1.30;99.90
48836;DHT22;62581;47.342;7.908;2023-02-11T01:53:54;-1.30;99.90
48836;DHT22;62581;47.342;7.908;2023-02-11T01:56:43;-1.30;99.90
48836;DHT22;62581;47.342;7.908;2023-02-11T01:59:30;-1.40;99.90
48836;DHT22;62581;47.342;7.908;2023-02-11T02:02:03;-1.40;99.90
48836;DHT22;62581;47.342;7.908;2023-02-11T02:04:37;-1.40;99.90
48836;DHT22;62581;47.342;7.908;2023-02-11T02:07:08;-1.40;99.90
48836;DHT22;62581;47.342;7.908;2023-02-11T02:09:41;-1.50;99.90
48836;DHT22;62581;47.342;7.908;2023-02-11T02:12:09;-1.50;99.90
48836;DHT22;62581;47.342;7.908;2023-02-11T02:14:38;-1.50;99.90
48836;DHT22;62581;47.342;7.908;2023-02-11T02:17:05;-1.60;99.90
48836;DHT22;62581;47.342;7.908;2023-02-11T02:20:12;-1.50;99.90
48836;DHT22;62581;47.342;7.908;2023-02-11T02:23:17;-1.60;99.90
48836;DHT22;62581;47.342;7.908;2023-02-11T02:29:17;-1.70;99.90
48836;DHT22;62581;47.342;7.908;2023-02-11T02:31:57;-1.60;99.90
48836;DHT22;62581;47.342;7.908;2023-02-11T02:34:32;-1.50;99.90
48836;DHT22;62581;47.342;7.908;2023-02-11T02:37:08;-1.70;99.90
48836;DHT22;62581;47.342;7.908;2023-02-11T02:39:37;-1.70;99.90
48836;DHT22;62581;47.342;7.908;2023-02-11T02:42:05;-1.70;99.90
48836;DHT22;62581;47.342;7.908;2023-02-11T02:44:33;-1.60;99.90
48836;DHT22;62581;47.342;7.908;2023-02-11T02:47:00;-1.70;99.90
48836;DHT22;62581;47.342;7.908;2023-02-11T02:49:28;-1.70;99.90
48836;DHT22;62581;47.342;7.908;2023-02-11T02:52:09;-1.60;99.90
48836;DHT22;62581;47.342;7.908;2023-02-11T02:55:10;-1.60;99.90
48836;DHT22;62581;47.342;7.908;2023-02-11T02:57:52;-1.60;99.90
48836;DHT22;62581;47.342;7.908;2023-02-11T03:00:24;-1.70;99.90
48836;DHT22;62581;47.342;7.908;2023-02-11T03:03:07;-1.60;99.90
48836;DHT22;62581;47.342;7.908;2023-02-11T03:05:47;-1.70;99.90
48836;DHT22;62581;47.342;7.908;2023-02-11T03:08:17;-1.70;99.90
48836;DHT22;62581;47.342;7.908;2023-02-11T03:10:50;-1.70;99.90
48836;DHT22;62581;47.342;7.908;2023-02-11T03:13:21;-1.80;99.90
48836;DHT22;62581;47.342;7.908;2023-02-11T03:15:51;-1.90;99.90
48836;DHT22;62581;47.342;7.908;2023-02-11T03:18:22;-1.80;99.90
48836;DHT22;62581;47.342;7.908;2023-02-11T03:20:53;-2.00;99.90
48836;DHT22;62581;47.342;7.908;2023-02-11T03:23:25;-2.00;99.90
48836;DHT22;62581;47.342;7.908;2023-02-11T03:25:57;-2.10;99.90
48836;DHT22;62581;47.342;7.908;2023-02-11T03:28:29;-2.00;99.90
48836;DHT22;62581;47.342;7.908;2023-02-11T03:31:09;-2.00;99.90
48836;DHT22;62581;47.342;7.908;2023-02-11T03:33:41;-2.00;99.90
48836;DHT22;62581;47.342;7.908;2023-02-11T03:36:13;-2.10;99.90
48836;DHT22;62581;47.342;7.908;2023-02-11T03:38:46;-2.10;99.90
48836;DHT22;62581;47.342;7.908;2023-02-11T03:41:15;-2.10;99.90
48836;DHT22;62581;47.342;7.908;2023-02-11T03:43:45;-2.00;99.90
48836;DHT22;62581;47.342;7.908;2023-02-11T03:46:17;-2.00;99.90
48836;DHT22;62581;47.342;7.908;2023-02-11T03:48:48;-2.00;99.90
48836;DHT22;62581;47.342;7.908;2023-02-11T03:51:20;-1.90;99.90
48836;DHT22;62581;47.342;7.908;2023-02-11T03:53:51;-2.00;99.90
48836;DHT22;62581;47.342;7.908;2023-02-11T03:56:20;-2.00;99.90
48836;DHT22;62581;47.342;7.908;2023-02-11T03:58:49;-2.00;99.90
48836;DHT22;62581;47.342;7.908;2023-02-11T04:01:16;-2.00;99.90
48836;DHT22;62581;47.342;7.908;2023-02-11T04:03:43;-2.00;99.90
48836;DHT22;62581;47.342;7.908;2023-02-11T04:06:10;-2.00;99.90
48836;DHT22;62581;47.342;7.908;2023-02-11T04:08:38;-2.10;99.90
48836;DHT22;62581;47.342;7.908;2023-02-11T04:11:05;-2.10;99.90
48836;DHT22;62581;47.342;7.908;2023-02-11T04:13:32;-2.10;99.90
48836;DHT22;62581;47.342;7.908;2023-02-11T04:15:59;-2.00;99.90
48836;DHT22;62581;47.342;7.908;2023-02-11T04:18:26;-2.00;99.90
48836;DHT22;62581;47.342;7.908;2023-02-11T04:20:53;-2.00;99.90
48836;DHT22;62581;47.342;7.908;2023-02-11T04:23:20;-2.00;99.90
48836;DHT22;62581;47.342;7.908;2023-02-11T04:25:49;-2.00;99.90
48836;DHT22;62581;47.342;7.908;2023-02-11T04:28:16;-2.00;99.90
48836;DHT22;62581;47.342;7.908;2023-02-11T04:30:43;-2.10;99.90
48836;DHT22;62581;47.342;7.908;2023-02-11T04:33:10;-2.20;99.90
48836;DHT22;62581;47.342;7.908;2023-02-11T04:35:37;-2.10;99.90
48836;DHT22;62581;47.342;7.908;2023-02-11T04:38:04;-2.20;99.90
48836;DHT22;62581;47.342;7.908;2023-02-11T04:40:31;-2.30;99.90
48836;DHT22;62581;47.342;7.908;2023-02-11T04:42:59;-2.30;99.90
48836;DHT22;62581;47.342;7.908;2023-02-11T04:45:26;-2.40;99.90
48836;DHT22;62581;47.342;7.908;2023-02-11T04:47:53;-2.40;99.90
48836;DHT22;62581;47.342;7.908;2023-02-11T04:50:20;-2.40;99.90
48836;DHT22;62581;47.342;7.908;2023-02-11T04:52:47;-2.40;99.90
48836;DHT22;62581;47.342;7.908;2023-02-11T04:55:14;-2.40;99.90
48836;DHT22;62581;47.342;7.908;2023-02-11T04:57:41;-2.40;99.90
48836;DHT22;62581;47.342;7.908;2023-02-11T05:00:11;-2.40;99.90
48836;DHT22;62581;47.342;7.908;2023-02-11T05:02:38;-2.40;99.90
48836;DHT22;62581;47.342;7.908;2023-02-11T05:05:05;-2.40;99.90
48836;DHT22;62581;47.342;7.908;2023-02-11T05:07:32;-2.40;99.90
48836;DHT22;62581;47.342;7.908;2023-02-11T05:09:59;-2.30;99.90
48836;DHT22;62581;47.342;7.908;2023-02-11T05:12:26;-2.30;99.90
48836;DHT22;62581;47.342;7.908;2023-02-11T05:14:53;-2.30;99.90
48836;DHT22;62581;47.342;7.908;2023-02-11T05:17:21;-2.30;99.90
48836;DHT22;62581;47.342;7.908;2023-02-11T05:19:48;-2.20;99.90
48836;DHT22;62581;47.342;7.908;2023-02-11T05:22:15;-2.20;99.90
48836;DHT22;62581;47.342;7.908;2023-02-11T05:24:42;-2.30;99.90
48836;DHT22;62581;47.342;7.908;2023-02-11T05:27:09;-2.30;99.90
48836;DHT22;62581;47.342;7.908;2023-02-11T05:29:37;-2.40;99.90
48836;DHT22;62581;47.342;7.908;2023-02-11T05:32:04;-2.40;99.90
48836;DHT22;62581;47.342;7.908;2023-02-11T05:34:33;-2.40;99.90
48836;DHT22;62581;47.342;7.908;2023-02-11T05:37:00;-2.40;99.90
48836;DHT22;62581;47.342;7.908;2023-02-11T05:39:27;-2.30;99.90
48836;DHT22;62581;47.342;7.908;2023-02-11T05:41:54;-2.30;99.90
48836;DHT22;62581;47.342;7.908;2023-02-11T05:44:21;-2.30;99.90
48836;DHT22;62581;47.342;7.908;2023-02-11T05:46:48;-2.20;99.90
48836;DHT22;62581;47.342;7.908;2023-02-11T05:49:15;-2.20;99.90
48836;DHT22;62581;47.342;7.908;2023-02-11T05:51:44;-2.30;99.90
48836;DHT22;62581;47.342;7.908;2023-02-11T05:54:11;-2.40;99.90
48836;DHT22;62581;47.342;7.908;2023-02-11T05:56:38;-2.40;99.90
48836;DHT22;62581;47.342;7.908;2023-02-11T05:59:05;-2.40;99.90
48836;DHT22;62581;47.342;7.908;2023-02-11T06:01:32;-2.40;99.90
48836;DHT22;62581;47.342;7.908;2023-02-11T06:03:59;-2.50;99.90
48836;DHT22;62581;47.342;7.908;2023-02-11T06:06:26;-2.40;99.90
48836;DHT22;62581;47.342;7.908;2023-02-11T06:08:54;-2.50;99.90
48836;DHT22;62581;47.342;7.908;2023-02-11T06:11:21;-2.50;99.90
48836;DHT22;62581;47.342;7.908;2023-02-11T06:13:49;-2.50;99.90
48836;DHT22;62581;47.342;7.908;2023-02-11T06:16:17;-2.50;99.90
48836;DHT22;62581;47.342;7.908;2023-02-11T06:18:43;-2.50;99.90
48836;DHT22;62581;47.342;7.908;2023-02-11T06:21:11;-2.40;99.90
48836;DHT22;62581;47.342;7.908;2023-02-11T06:23:38;-2.50;99.90
48836;DHT22;62581;47.342;7.908;2023-02-11T06:26:08;-2.50;99.90
48836;DHT22;62581;47.342;7.908;2023-02-11T06:28:36;-2.50;99.90
48836;DHT22;62581;47.342;7.908;2023-02-11T06:31:06;-2.50;99.90
48836;DHT22;62581;47.342;7.908;2023-02-11T06:33:34;-2.40;99.90
48836;DHT22;62581;47.342;7.908;2023-02-11T06:36:01;-2.50;99.90
48836;DHT22;62581;47.342;7.908;2023-02-11T06:38:29;-2.50;99.90
48836;DHT22;62581;47.342;7.908;2023-02-11T06:40:56;-2.50;99.90
48836;DHT22;62581;47.342;7.908;2023-02-11T06:43:24;-2.50;99.90
48836;DHT22;62581;47.342;7.908;2023-02-11T06:45:52;-2.50;99.90
48836;DHT22;62581;47.342;7.908;2023-02-11T06:48:20;-2.50;99.90
48836;DHT22;62581;47.342;7.908;2023-02-11T06:50:47;-2.50;99.90
48836;DHT22;62581;47.342;7.908;2023-02-11T06:53:14;-2.50;99.90
48836;DHT22;62581;47.342;7.908;2023-02-11T06:55:41;-2.40;99.90
48836;DHT22;62581;47.342;7.908;2023-02-11T06:58:08;-2.50;99.90
48836;DHT22;62581;47.342;7.908;2023-02-11T07:00:37;-2.50;99.90
48836;DHT22;62581;47.342;7.908;2023-02-11T07:03:04;-2.50;99.90
48836;DHT22;62581;47.342;7.908;2023-02-11T07:05:31;-2.50;99.90
48836;DHT22;62581;47.342;7.908;2023-02-11T07:07:58;-2.40;99.90
48836;DHT22;62581;47.342;7.908;2023-02-11T07:10:25;-2.40;99.90
48836;DHT22;62581;47.342;7.908;2023-02-11T07:12:52;-2.40;99.90
48836;DHT22;62581;47.342;7.908;2023-02-11T07:15:19;-2.30;99.90
48836;DHT22;62581;47.342;7.908;2023-02-11T07:17:48;-2.30;99.90
48836;DHT22;62581;47.342;7.908;2023-02-11T07:20:15;-2.20;99.90
48836;DHT22;62581;47.342;7.908;2023-02-11T07:22:42;-2.30;99.90
48836;DHT22;62581;47.342;7.908;2023-02-11T07:25:09;-2.20;99.90
48836;DHT22;62581;47.342;7.908;2023-02-11T07:27:36;-2.10;99.90
48836;DHT22;62581;47.342;7.908;2023-02-11T07:30:04;-2.10;99.90
48836;DHT22;62581;47.342;7.908;2023-02-11T07:32:31;-2.10;99.90
48836;DHT22;62581;47.342;7.908;2023-02-11T07:34:59;-2.00;99.90
48836;DHT22;62581;47.342;7.908;2023-02-11T07:37:26;-2.00;99.90
48836;DHT22;62581;47.342;7.908;2023-02-11T07:39:53;-1.90;99.90
48836;DHT22;62581;47.342;7.908;2023-02-11T07:42:20;-1.90;99.90
48836;DHT22;62581;47.342;7.908;2023-02-11T07:44:47;-1.90;99.90
48836;DHT22;62581;47.342;7.908;2023-02-11T07:47:14;-1.80;99.90
48836;DHT22;62581;47.342;7.908;2023-02-11T07:49:41;-1.80;99.90
48836;DHT22;62581;47.342;7.908;2023-02-11T07:52:09;-1.70;99.90
48836;DHT22;62581;47.342;7.908;2023-02-11T07:54:36;-1.70;99.90
48836;DHT22;62581;47.342;7.908;2023-02-11T07:57:03;-1.70;99.90
48836;DHT22;62581;47.342;7.908;2023-02-11T07:59:30;-1.60;99.90
48836;DHT22;62581;47.342;7.908;2023-02-11T08:01:57;-1.60;99.90
48836;DHT22;62581;47.342;7.908;2023-02-11T08:04:24;-1.60;99.90
48836;DHT22;62581;47.342;7.908;2023-02-11T08:06:51;-1.50;99.90
48836;DHT22;62581;47.342;7.908;2023-02-11T08:09:23;-1.50;99.90
48836;DHT22;62581;47.342;7.908;2023-02-11T08:11:52;-1.40;99.90
48836;DHT22;62581;47.342;7.908;2023-02-11T08:14:19;-1.30;99.90
48836;DHT22;62581;47.342;7.908;2023-02-11T08:16:46;-1.30;99.90
48836;DHT22;62581;47.342;7.908;2023-02-11T08:19:15;-1.20;99.90
48836;DHT22;62581;47.342;7.908;2023-02-11T08:21:42;-1.20;99.90
48836;DHT22;62581;47.342;7.908;2023-02-11T08:24:10;-1.10;99.90
48836;DHT22;62581;47.342;7.908;2023-02-11T08:26:39;-1.10;99.90
48836;DHT22;62581;47.342;7.908;2023-02-11T08:29:08;-1.00;99.90
48836;DHT22;62581;47.342;7.908;2023-02-11T08:31:37;-0.90;99.90
48836;DHT22;62581;47.342;7.908;2023-02-11T08:34:05;-0.90;99.90
48836;DHT22;62581;47.342;7.908;2023-02-11T08:36:33;-0.80;99.90
48836;DHT22;62581;47.342;7.908;2023-02-11T08:39:03;-0.70;99.90
48836;DHT22;62581;47.342;7.908;2023-02-11T08:41:31;-0.60;99.90
48836;DHT22;62581;47.342;7.908;2023-02-11T08:43:59;-0.60;99.90
48836;DHT22;62581;47.342;7.908;2023-02-11T08:46:26;-0.40;99.90
48836;DHT22;62581;47.342;7.908;2023-02-11T08:48:53;-0.30;99.90
48836;DHT22;62581;47.342;7.908;2023-02-11T08:51:23;-0.20;99.90
48836;DHT22;62581;47.342;7.908;2023-02-11T08:53:53;0.00;99.90
48836;DHT22;62581;47.342;7.908;2023-02-11T08:56:20;0.00;99.90
48836;DHT22;62581;47.342;7.908;2023-02-11T08:58:49;0.00;99.90
48836;DHT22;62581;47.342;7.908;2023-02-11T09:01:19;0.10;99.90
48836;DHT22;62581;47.342;7.908;2023-02-11T09:03:47;0.20;99.90
48836;DHT22;62581;47.342;7.908;2023-02-11T09:06:14;0.30;99.90
48836;DHT22;62581;47.342;7.908;2023-02-11T09:08:45;0.50;99.90
48836;DHT22;62581;47.342;7.908;2023-02-11T09:11:14;0.70;99.90
48836;DHT22;62581;47.342;7.908;2023-02-11T09:13:42;0.80;99.90
48836;DHT22;62581;47.342;7.908;2023-02-11T09:16:15;0.90;99.90
48836;DHT22;62581;47.342;7.908;2023-02-11T09:18:44;1.00;99.90
48836;DHT22;62581;47.342;7.908;2023-02-11T09:21:12;1.20;99.90
48836;DHT22;62581;47.342;7.908;2023-02-11T09:23:39;1.30;99.90
48836;DHT22;62581;47.342;7.908;2023-02-11T09:26:11;1.40;99.90
48836;DHT22;62581;47.342;7.908;2023-02-11T09:28:38;1.60;99.90
48836;DHT22;62581;47.342;7.908;2023-02-11T09:31:06;1.50;99.90
48836;DHT22;62581;47.342;7.908;2023-02-11T09:33:33;1.50;99.90
48836;DHT22;62581;47.342;7.908;2023-02-11T09:36:02;1.50;99.90
48836;DHT22;62581;47.342;7.908;2023-02-11T09:38:29;1.50;99.90
48836;DHT22;62581;47.342;7.908;2023-02-11T09:40:56;1.60;99.90
48836;DHT22;62581;47.342;7.908;2023-02-11T09:43:27;1.70;99.90
48836;DHT22;62581;47.342;7.908;2023-02-11T09:45:57;1.80;99.90
48836;DHT22;62581;47.342;7.908;2023-02-11T09:48:24;1.90;99.90
48836;DHT22;62581;47.342;7.908;2023-02-11T09:50:54;2.00;99.90
48836;DHT22;62581;47.342;7.908;2023-02-11T09:53:25;2.10;99.90
48836;DHT22;62581;47.342;7.908;2023-02-11T09:55:54;2.10;99.90
48836;DHT22;62581;47.342;7.908;2023-02-11T09:58:25;2.10;99.90
48836;DHT22;62581;47.342;7.908;2023-02-11T10:00:59;2.10;99.90
48836;DHT22;62581;47.342;7.908;2023-02-11T10:06:40;2.30;99.90
48836;DHT22;62581;47.342;7.908;2023-02-11T10:09:32;2.40;99.90
48836;DHT22;62581;47.342;7.908;2023-02-11T10:12:15;2.60;99.90
48836;DHT22;62581;47.342;7.908;2023-02-11T10:14:54;2.80;99.90
48836;DHT22;62581;47.342;7.908;2023-02-11T10:17:31;2.90;99.90
48836;DHT22;62581;47.342;7.908;2023-02-11T10:20:13;3.20;99.90
48836;DHT22;62581;47.342;7.908;2023-02-11T10:22:46;3.40;99.90
48836;DHT22;62581;47.342;7.908;2023-02-11T10:25:22;3.70;99.90
48836;DHT22;62581;47.342;7.908;2023-02-11T10:27:50;3.90;99.90
48836;DHT22;62581;47.342;7.908;2023-02-11T10:30:25;4.30;99.90
48836;DHT22;62581;47.342;7.908;2023-02-11T10:32:58;4.70;99.90
48836;DHT22;62581;47.342;7.908;2023-02-11T10:35:26;4.80;99.90
48836;DHT22;62581;47.342;7.908;2023-02-11T10:37:53;5.00;99.90
48836;DHT22;62581;47.342;7.908;2023-02-11T10:40:24;5.40;99.90
48836;DHT22;62581;47.342;7.908;2023-02-11T10:42:54;5.80;99.90
48836;DHT22;62581;47.342;7.908;2023-02-11T10:45:26;6.00;99.90
48836;DHT22;62581;47.342;7.908;2023-02-11T10:47:54;6.10;99.90
48836;DHT22;62581;47.342;7.908;2023-02-11T10:50:23;6.20;99.90
48836;DHT22;62581;47.342;7.908;2023-02-11T10:52:50;6.00;99.90
48836;DHT22;62581;47.342;7.908;2023-02-11T10:55:19;5.80;99.90
48836;DHT22;62581;47.342;7.908;2023-02-11T10:57:51;5.70;99.90
48836;DHT22;62581;47.342;7.908;2023-02-11T11:00:26;5.70;99.90
48836;DHT22;62581;47.342;7.908;2023-02-11T11:02:58;5.50;99.90
48836;DHT22;62581;47.342;7.908;2023-02-11T11:05:30;5.50;99.90
48836;DHT22;62581;47.342;7.908;2023-02-11T11:07:59;5.50;99.90
48836;DHT22;62581;47.342;7.908;2023-02-11T11:10:34;5.60;99.90
48836;DHT22;62581;47.342;7.908;2023-02-11T11:13:26;5.60;99.90
48836;DHT22;62581;47.342;7.908;2023-02-11T11:16:08;5.70;99.90
48836;DHT22;62581;47.342;7.908;2023-02-11T11:18:42;5.50;99.90
48836;DHT22;62581;47.342;7.908;2023-02-11T11:21:13;5.70;99.90
48836;DHT22;62581;47.342;7.908;2023-02-11T11:23:47;5.70;99.90
48836;DHT22;62581;47.342;7.908;2023-02-11T11:26:16;5.70;99.90
48836;DHT22;62581;47.342;7.908;2023-02-11T11:29:01;5.90;99.90
48836;DHT22;62581;47.342;7.908;2023-02-11T11:31:35;6.20;99.90
48836;DHT22;62581;47.342;7.908;2023-02-11T11:34:20;6.60;99.90
48836;DHT22;62581;47.342;7.908;2023-02-11T11:36:48;6.90;99.90
48836;DHT22;62581;47.342;7.908;2023-02-11T11:39:22;7.00;99.90
48836;DHT22;62581;47.342;7.908;2023-02-11T11:41:55;7.10;99.90
48836;DHT22;62581;47.342;7.908;2023-02-11T11:44:27;7.00;99.90
48836;DHT22;62581;47.342;7.908;2023-02-11T11:47:14;7.80;99.90
48836;DHT22;62581;47.342;7.908;2023-02-11T11:49:48;9.30;99.90
48836;DHT22;62581;47.342;7.908;2023-02-11T11:52:21;10.40;99.90
48836;DHT22;62581;47.342;7.908;2023-02-11T11:54:57;11.00;99.90
48836;DHT22;62581;47.342;7.908;2023-02-11T11:57:26;11.80;99.90
48836;DHT22;62581;47.342;7.908;2023-02-11T11:59:57;12.70;99.90
48836;DHT22;62581;47.342;7.908;2023-02-11T12:05:28;13.00;99.50
48836;DHT22;62581;47.342;7.908;2023-02-11T12:08:09;13.50;99.00
48836;DHT22;62581;47.342;7.908;2023-02-11T12:10:50;13.90;96.70
48836;DHT22;62581;47.342;7.908;2023-02-11T12:13:32;14.10;95.70
48836;DHT22;62581;47.342;7.908;2023-02-11T12:16:11;14.40;94.80
48836;DHT22;62581;47.342;7.908;2023-02-11T12:18:51;14.70;94.70
48836;DHT22;62581;47.342;7.908;2023-02-11T12:21:27;15.30;93.40
48836;DHT22;62581;47.342;7.908;2023-02-11T12:24:09;15.70;92.20
48836;DHT22;62581;47.342;7.908;2023-02-11T12:26:42;16.10;90.90
48836;DHT22;62581;47.342;7.908;2023-02-11T12:29:19;16.00;90.10
48836;DHT22;62581;47.342;7.908;2023-02-11T12:31:58;16.60;89.30
48836;DHT22;62581;47.342;7.908;2023-02-11T12:34:51;17.00;86.90
48836;DHT22;62581;47.342;7.908;2023-02-11T12:37:28;16.40;86.40
48836;DHT22;62581;47.342;7.908;2023-02-11T12:40:03;16.10;86.50
48836;DHT22;62581;47.342;7.908;2023-02-11T12:42:46;15.60;86.80
48836;DHT22;62581;47.342;7.908;2023-02-11T12:45:41;14.90;88.60
48836;DHT22;62581;47.342;7.908;2023-02-11T12:51:19;14.60;89.80
48836;DHT22;62581;47.342;7.908;2023-02-11T12:54:07;15.30;87.20
48836;DHT22;62581;47.342;7.908;2023-02-11T12:56:42;15.20;85.50
48836;DHT22;62581;47.342;7.908;2023-02-11T12:59:16;15.90;84.80
48836;DHT22;62581;47.342;7.908;2023-02-11T13:01:47;16.70;83.20
48836;DHT22;62581;47.342;7.908;2023-02-11T13:04:21;17.40;80.30
48836;DHT22;62581;47.342;7.908;2023-02-11T13:06:52;17.30;79.50
48836;DHT22;62581;47.342;7.908;2023-02-11T13:09:24;16.70;80.20
48836;DHT22;62581;47.342;7.908;2023-02-11T13:11:54;15.60;82.70
48836;DHT22;62581;47.342;7.908;2023-02-11T13:14:26;16.30;81.40
48836;DHT22;62581;47.342;7.908;2023-02-11T13:16:55;15.60;81.50
48836;DHT22;62581;47.342;7.908;2023-02-11T13:19:28;15.50;83.40
48836;DHT22;62581;47.342;7.908;2023-02-11T13:22:05;16.00;82.10
48836;DHT22;62581;47.342;7.908;2023-02-11T13:24:40;16.10;81.00
48836;DHT22;62581;47.342;7.908;2023-02-11T13:27:19;16.60;80.80
48836;DHT22;62581;47.342;7.908;2023-02-11T13:30:16;15.60;81.70
48836;DHT22;62581;47.342;7.908;2023-02-11T13:35:48;16.40;80.50
48836;DHT22;62581;47.342;7.908;2023-02-11T13:38:20;15.90;80.70
48836;DHT22;62581;47.342;7.908;2023-02-11T13:41:00;15.90;82.20
48836;DHT22;62581;47.342;7.908;2023-02-11T13:43:30;15.80;82.00
48836;DHT22;62581;47.342;7.908;2023-02-11T13:46:00;16.60;80.90
48836;DHT22;62581;47.342;7.908;2023-02-11T13:48:30;17.00;80.20
48836;DHT22;62581;47.342;7.908;2023-02-11T13:51:03;17.80;77.10
48836;DHT22;62581;47.342;7.908;2023-02-11T13:53:43;18.10;76.90
48836;DHT22;62581;47.342;7.908;2023-02-11T13:56:22;18.20;76.70
48836;DHT22;62581;47.342;7.908;2023-02-11T13:58:50;18.80;74.70
48836;DHT22;62581;47.342;7.908;2023-02-11T14:01:38;19.20;73.00
48836;DHT22;62581;47.342;7.908;2023-02-11T14:04:19;19.00;73.30
48836;DHT22;62581;47.342;7.908;2023-02-11T14:10:50;19.40;71.80
48836;DHT22;62581;47.342;7.908;2023-02-11T14:13:22;20.60;69.90
48836;DHT22;62581;47.342;7.908;2023-02-11T14:16:06;21.00;67.30
48836;DHT22;62581;47.342;7.908;2023-02-11T14:18:40;21.20;66.20
48836;DHT22;62581;47.342;7.908;2023-02-11T14:21:29;21.00;64.90
48836;DHT22;62581;47.342;7.908;2023-02-11T14:24:44;21.30;64.20
48836;DHT22;62581;47.342;7.908;2023-02-11T14:27:19;21.70;63.20
48836;DHT22;62581;47.342;7.908;2023-02-11T14:32:59;21.70;60.50
48836;DHT22;62581;47.342;7.908;2023-02-11T14:35:35;22.40;60.50
48836;DHT22;62581;47.342;7.908;2023-02-11T14:38:09;22.20;60.40
48836;DHT22;62581;47.342;7.908;2023-02-11T14:40:40;22.30;60.50
48836;DHT22;62581;47.342;7.908;2023-02-11T14:43:21;22.30;59.90
48836;DHT22;62581;47.342;7.908;2023-02-11T14:45:52;22.10;59.80
48836;DHT22;62581;47.342;7.908;2023-02-11T14:48:25;22.20;60.00
48836;DHT22;62581;47.342;7.908;2023-02-11T14:50:59;22.50;59.30
48836;DHT22;62581;47.342;7.908;2023-02-11T14:53:27;22.60;58.60
48836;DHT22;62581;47.342;7.908;2023-02-11T14:55:56;22.80;58.50
48836;DHT22;62581;47.342;7.908;2023-02-11T14:58:26;22.70;58.60
48836;DHT22;62581;47.342;7.908;2023-02-11T15:00:55;22.60;58.80
48836;DHT22;62581;47.342;7.908;2023-02-11T15:03:24;22.50;59.00
48836;DHT22;62581;47.342;7.908;2023-02-11T15:05:54;22.50;58.30
48836;DHT22;62581;47.342;7.908;2023-02-11T15:08:22;22.30;57.90
48836;DHT22;62581;47.342;7.908;2023-02-11T15:10:49;21.80;58.70
48836;DHT22;62581;47.342;7.908;2023-02-11T15:13:19;21.80;58.90
48836;DHT22;62581;47.342;7.908;2023-02-11T15:15:56;21.60;59.00
48836;DHT22;62581;47.342;7.908;2023-02-11T15:18:32;21.00;59.90
48836;DHT22;62581;47.342;7.908;2023-02-11T15:21:00;21.30;60.20
48836;DHT22;62581;47.342;7.908;2023-02-11T15:23:28;21.40;59.80
48836;DHT22;62581;47.342;7.908;2023-02-11T15:25:56;21.70;59.50
48836;DHT22;62581;47.342;7.908;2023-02-11T15:28:29;21.70;59.40
48836;DHT22;62581;47.342;7.908;2023-02-11T15:31:00;21.70;61.30
48836;DHT22;62581;47.342;7.908;2023-02-11T15:33:27;21.60;62.80
48836;DHT22;62581;47.342;7.908;2023-02-11T15:35:57;21.00;61.30
48836;DHT22;62581;47.342;7.908;2023-02-11T15:38:24;20.30;63.00
48836;DHT22;62581;47.342;7.908;2023-02-11T15:40:53;19.40;65.50
48836;DHT22;62581;47.342;7.908;2023-02-11T15:43:21;17.10;68.50
48836;DHT22;62581;47.342;7.908;2023-02-11T15:45:59;15.80;72.60
48836;DHT22;62581;47.342;7.908;2023-02-11T15:48:34;15.00;76.30
48836;DHT22;62581;47.342;7.908;2023-02-11T15:51:07;14.70;78.00
48836;DHT22;62581;47.342;7.908;2023-02-11T15:53:38;14.60;78.10
48836;DHT22;62581;47.342;7.908;2023-02-11T15:56:11;14.50;76.10
48836;DHT22;62581;47.342;7.908;2023-02-11T15:58:43;14.50;77.40
48836;DHT22;62581;47.342;7.908;2023-02-11T16:01:12;14.40;76.80
48836;DHT22;62581;47.342;7.908;2023-02-11T16:03:40;14.10;77.80
48836;DHT22;62581;47.342;7.908;2023-02-11T16:06:16;13.90;78.70
48836;DHT22;62581;47.342;7.908;2023-02-11T16:08:55;13.50;80.60
48836;DHT22;62581;47.342;7.908;2023-02-11T16:11:25;12.90;82.30
48836;DHT22;62581;47.342;7.908;2023-02-11T16:13:54;12.40;84.00
48836;DHT22;62581;47.342;7.908;2023-02-11T16:16:24;12.00;86.20
48836;DHT22;62581;47.342;7.908;2023-02-11T16:18:52;11.60;87.50